Aviation Digital Data Service (ADDS)

Output produced by METARs form (1304 UTC 17 January 2017)
found at http://aviationweather.gov/adds/metars/
 
KACK 171122Z 1712/1812 28009KT P6SM BKN100 
     FM172000 10005KT P6SM OVC050 
     FM172300 11006KT 6SM -RA OVC040 
     FM180600 11018G28KT 3SM -RA OVC010 
     FM180800 11020G29KT 3SM -RA OVC008